createdAt,value
2018-05-27T00:01:26.563Z,85.40
2018-05-27T00:03:54.133Z,85.30
2018-05-27T00:06:21.775Z,85.30
2018-05-27T00:08:49.301Z,85.50
2018-05-27T00:11:17.616Z,85.70
2018-05-27T00:13:45.168Z,85.60
2018-05-27T00:16:12.692Z,85.90
2018-05-27T00:18:40.281Z,85.50
2018-05-27T00:21:07.834Z,86.20
2018-05-27T00:23:35.396Z,86.80
2018-05-27T00:26:02.913Z,87.30
2018-05-27T00:28:31.244Z,88.80
2018-05-27T00:30:58.800Z,88.60
2018-05-27T00:33:26.350Z,89.40
2018-05-27T00:35:53.908Z,88.90
2018-05-27T00:38:21.437Z,89.20
2018-05-27T00:40:49.718Z,89.70
2018-05-27T00:43:18.050Z,89.60
2018-05-27T00:45:45.571Z,89.50
2018-05-27T00:48:13.081Z,90.00
2018-05-27T00:50:40.795Z,90.20
2018-05-27T00:53:08.376Z,90.50
2018-05-27T00:55:35.914Z,90.70
2018-05-27T00:58:03.471Z,90.40
2018-05-27T01:00:30.994Z,90.50
2018-05-27T01:02:59.318Z,90.90
2018-05-27T01:05:27.205Z,90.80
2018-05-27T01:07:54.749Z,91.10
2018-05-27T01:10:22.289Z,91.40
2018-05-27T01:12:49.849Z,91.70
2018-05-27T01:15:17.401Z,91.90
2018-05-27T01:17:44.964Z,91.90
2018-05-27T01:20:12.534Z,92.40
2018-05-27T01:22:40.085Z,92.50
2018-05-27T01:25:07.642Z,92.70
2018-05-27T01:27:35.308Z,93.20
2018-05-27T01:30:02.840Z,93.50
2018-05-27T01:32:30.436Z,93.70
2018-05-27T01:34:58.005Z,93.80
2018-05-27T01:37:25.530Z,94.00
2018-05-27T01:39:53.111Z,94.20
2018-05-27T01:42:20.658Z,94.30
2018-05-27T01:44:49.243Z,94.60
2018-05-27T01:47:16.806Z,94.40
2018-05-27T01:49:44.480Z,94.30
2018-05-27T01:52:12.015Z,94.10
2018-05-27T01:54:39.582Z,94.20
2018-05-27T01:57:07.169Z,94.10
2018-05-27T01:59:34.704Z,93.90
2018-05-27T02:02:02.345Z,93.80
2018-05-27T02:04:29.913Z,93.90
2018-05-27T02:06:57.482Z,94.10
2018-05-27T02:09:25.070Z,94.10
2018-05-27T02:11:52.692Z,94.20
2018-05-27T02:14:20.254Z,94.60
2018-05-27T02:16:47.809Z,94.90
2018-05-27T02:19:15.371Z,95.30
2018-05-27T02:21:42.889Z,95.30
2018-05-27T02:24:11.206Z,95.50
2018-05-27T02:26:38.775Z,95.40
2018-05-27T02:29:06.295Z,95.40
2018-05-27T02:31:34.573Z,96.10
2018-05-27T02:34:02.979Z,96.20
2018-05-27T02:36:43.042Z,96.20
2018-05-27T02:39:10.612Z,96.90
2018-05-27T02:41:38.240Z,97.10
2018-05-27T02:44:05.814Z,97.50
2018-05-27T02:46:33.376Z,97.40
2018-05-27T02:49:00.915Z,97.40
2018-05-27T02:51:28.437Z,97.50
2018-05-27T02:53:56.861Z,97.70
2018-05-27T02:56:24.396Z,97.60
2018-05-27T02:58:52.709Z,98.20
2018-05-27T03:01:20.279Z,98.20
2018-05-27T03:03:47.826Z,98.60
2018-05-27T03:06:15.383Z,98.90
2018-05-27T03:08:42.948Z,99.30
2018-05-27T03:11:10.471Z,99.40
2018-05-27T03:13:37.995Z,99.60
2018-05-27T03:16:05.663Z,99.90
2018-05-27T03:18:33.175Z,99.90
2018-05-27T03:21:00.748Z,99.90
2018-05-27T03:23:28.303Z,99.90
2018-05-27T03:25:55.841Z,99.90
2018-05-27T03:28:23.360Z,99.90
2018-05-27T03:30:51.802Z,99.90
2018-05-27T03:33:19.343Z,99.90
2018-05-27T03:35:46.856Z,99.90
2018-05-27T03:38:15.174Z,99.90
2018-05-27T03:40:42.699Z,99.90
2018-05-27T03:43:10.977Z,99.90
2018-05-27T03:45:39.312Z,99.90
2018-05-27T03:48:06.964Z,99.90
2018-05-27T03:50:34.486Z,99.90
2018-05-27T03:53:02.032Z,99.90
2018-05-27T03:55:30.330Z,99.90
2018-05-27T03:57:57.859Z,99.90
2018-05-27T04:00:26.254Z,99.90
2018-05-27T04:02:53.844Z,99.90
2018-05-27T04:05:33.380Z,99.90
2018-05-27T04:08:12.921Z,99.90
2018-05-27T04:10:40.502Z,99.90
2018-05-27T04:13:08.356Z,99.90
2018-05-27T04:15:35.870Z,99.90
2018-05-27T04:18:04.215Z,99.90
2018-05-27T04:20:31.866Z,99.90
2018-05-27T04:22:59.381Z,99.90
2018-05-27T04:25:26.945Z,99.90
2018-05-27T04:27:54.481Z,99.90
2018-05-27T04:30:22.786Z,99.90
2018-05-27T04:32:50.358Z,99.90
2018-05-27T04:35:18.730Z,99.90
2018-05-27T04:37:46.241Z,99.90
2018-05-27T04:40:14.572Z,99.90
2018-05-27T04:42:42.116Z,99.90
2018-05-27T04:45:10.202Z,99.90
2018-05-27T04:47:37.761Z,99.90
2018-05-27T04:50:05.277Z,99.90
2018-05-27T04:52:33.627Z,99.90
2018-05-27T04:55:01.241Z,99.90
2018-05-27T04:57:28.749Z,99.90
2018-05-27T04:59:56.363Z,99.90
2018-05-27T05:02:23.907Z,99.90
2018-05-27T05:04:51.472Z,99.90
2018-05-27T05:07:18.993Z,99.90
2018-05-27T05:09:47.307Z,99.90
2018-05-27T05:12:14.871Z,99.90
2018-05-27T05:14:42.390Z,99.90
2018-05-27T05:17:10.728Z,99.90
2018-05-27T05:19:38.277Z,99.90
2018-05-27T05:22:05.878Z,99.90
2018-05-27T05:24:34.519Z,99.90
2018-05-27T05:27:02.078Z,99.90
2018-05-27T05:29:29.621Z,99.90
2018-05-27T05:31:57.179Z,99.90
2018-05-27T05:34:24.753Z,99.90
2018-05-27T05:36:52.277Z,99.90
2018-05-27T05:39:19.829Z,99.90
2018-05-27T05:41:48.149Z,99.90
2018-05-27T05:44:15.695Z,99.90
2018-05-27T05:46:43.255Z,99.90
2018-05-27T05:49:10.807Z,99.90
2018-05-27T05:51:38.319Z,99.90
2018-05-27T05:54:05.879Z,99.90
2018-05-27T05:56:33.397Z,99.90
2018-05-27T05:59:00.927Z,99.90
2018-05-27T06:01:29.117Z,99.90
2018-05-27T06:03:56.653Z,99.90
2018-05-27T06:06:24.157Z,99.90
2018-05-27T06:08:51.698Z,99.90
2018-05-27T06:11:19.275Z,99.90
2018-05-27T06:13:46.844Z,99.90
2018-05-27T06:16:14.467Z,99.90
2018-05-27T06:18:41.993Z,99.90
2018-05-27T06:21:10.311Z,99.90
2018-05-27T06:23:37.959Z,99.90
2018-05-27T06:26:05.478Z,99.90
2018-05-27T06:28:32.998Z,99.90
2018-05-27T06:31:00.639Z,99.90
2018-05-27T06:33:28.193Z,99.90
2018-05-27T06:35:55.824Z,99.90
2018-05-27T06:38:24.153Z,99.90
2018-05-27T06:40:51.691Z,99.90
2018-05-27T06:43:19.224Z,99.90
2018-05-27T06:45:47.528Z,99.90
2018-05-27T06:48:15.090Z,99.90
2018-05-27T06:50:42.663Z,99.90
2018-05-27T06:53:10.214Z,99.90
2018-05-27T06:55:37.776Z,99.90
2018-05-27T06:58:05.310Z,99.90
2018-05-27T07:00:32.851Z,99.90
2018-05-27T07:03:01.161Z,99.90
2018-05-27T07:05:28.717Z,99.90
2018-05-27T07:07:56.298Z,99.90
2018-05-27T07:10:23.951Z,99.40
2018-05-27T07:12:51.467Z,99.30
2018-05-27T07:15:19.792Z,99.20
2018-05-27T07:17:48.783Z,99.20
2018-05-27T07:20:16.323Z,99.00
2018-05-27T07:22:43.844Z,98.80
2018-05-27T07:25:12.172Z,98.40
2018-05-27T07:27:39.819Z,98.40
2018-05-27T07:30:07.382Z,98.40
2018-05-27T07:32:35.068Z,98.10
2018-05-27T07:35:02.618Z,97.90
2018-05-27T07:37:30.168Z,97.90
2018-05-27T07:39:57.732Z,97.80
2018-05-27T07:42:25.253Z,97.70
2018-05-27T07:44:52.844Z,97.40
2018-05-27T07:47:20.391Z,96.90
2018-05-27T07:49:47.945Z,96.60
2018-05-27T07:52:15.470Z,96.70
2018-05-27T07:54:43.987Z,96.60
2018-05-27T07:57:11.520Z,96.50
2018-05-27T07:59:39.076Z,96.70
2018-05-27T08:02:07.394Z,96.60
2018-05-27T08:04:34.925Z,96.50
2018-05-27T08:07:02.487Z,96.20
2018-05-27T08:09:30.113Z,96.40
2018-05-27T08:11:57.647Z,96.20
2018-05-27T08:14:25.188Z,96.00
2018-05-27T08:16:52.741Z,96.10
2018-05-27T08:19:20.254Z,95.80
2018-05-27T08:21:48.546Z,96.00
2018-05-27T08:24:16.964Z,95.80
2018-05-27T08:26:44.503Z,95.80
2018-05-27T08:29:12.037Z,95.80
2018-05-27T08:31:40.359Z,95.40
2018-05-27T08:34:07.905Z,95.30
2018-05-27T08:36:35.431Z,95.30
2018-05-27T08:39:03.756Z,95.30
2018-05-27T08:41:31.294Z,95.30
2018-05-27T08:43:58.841Z,95.40
2018-05-27T08:46:26.418Z,95.30
2018-05-27T08:48:54.322Z,95.10
2018-05-27T08:51:21.839Z,94.90
2018-05-27T08:53:49.390Z,94.50
2018-05-27T08:56:16.971Z,94.20
2018-05-27T08:58:44.508Z,94.40
2018-05-27T09:01:12.113Z,94.30
2018-05-27T09:03:39.689Z,94.20
2018-05-27T09:06:07.200Z,94.40
2018-05-27T09:08:34.740Z,94.10
2018-05-27T09:11:02.271Z,94.40
2018-05-27T09:13:30.561Z,93.70
2018-05-27T09:15:58.372Z,93.60
2018-05-27T09:18:26.015Z,93.60
2018-05-27T09:20:53.531Z,93.40
2018-05-27T09:23:21.859Z,93.00
2018-05-27T09:25:49.528Z,93.00
2018-05-27T09:28:17.045Z,93.00
2018-05-27T09:30:44.629Z,92.80
2018-05-27T09:33:12.203Z,92.80
2018-05-27T09:35:39.729Z,92.70
2018-05-27T09:38:07.302Z,93.10
2018-05-27T09:40:34.969Z,92.00
2018-05-27T09:43:02.615Z,91.80
2018-05-27T09:45:30.216Z,91.60
2018-05-27T09:47:57.737Z,91.60
2018-05-27T09:50:25.311Z,91.50
2018-05-27T09:52:52.850Z,91.40
2018-05-27T09:55:20.528Z,91.00
2018-05-27T09:57:48.087Z,91.00
2018-05-27T10:00:15.600Z,90.10
2018-05-27T10:02:44.005Z,89.90
2018-05-27T10:05:11.524Z,89.80
2018-05-27T10:07:39.809Z,88.70
2018-05-27T10:10:08.226Z,88.20
2018-05-27T10:12:35.786Z,88.10
2018-05-27T10:15:03.298Z,88.70
2018-05-27T10:17:31.721Z,88.00
2018-05-27T10:19:59.275Z,88.00
2018-05-27T10:22:26.797Z,87.40
2018-05-27T10:24:55.157Z,86.00
2018-05-27T10:27:23.104Z,85.90
2018-05-27T10:29:50.650Z,86.10
2018-05-27T10:32:18.211Z,85.30
2018-05-27T10:34:45.736Z,85.40
2018-05-27T10:37:13.267Z,84.40
2018-05-27T10:39:40.888Z,85.50
2018-05-27T10:42:08.410Z,86.00
2018-05-27T10:44:35.937Z,84.90
2018-05-27T10:47:04.997Z,84.20
2018-05-27T10:49:32.545Z,84.20
2018-05-27T10:52:00.114Z,83.90
2018-05-27T10:54:27.784Z,83.30
2018-05-27T10:56:55.312Z,83.00
2018-05-27T10:59:22.828Z,82.50
2018-05-27T11:01:51.894Z,81.70
2018-05-27T11:04:19.415Z,81.70
2018-05-27T11:06:46.963Z,81.80
2018-05-27T11:09:15.282Z,80.20
2018-05-27T11:11:42.836Z,80.10
2018-05-27T11:14:10.393Z,80.70
2018-05-27T11:16:37.947Z,81.50
2018-05-27T11:19:05.492Z,80.80
2018-05-27T11:21:33.049Z,80.60
2018-05-27T11:24:00.622Z,80.00
2018-05-27T11:26:28.152Z,80.10
2018-05-27T11:28:56.471Z,80.10
2018-05-27T11:31:24.965Z,80.00
2018-05-27T11:33:52.607Z,79.40
2018-05-27T11:36:20.123Z,78.40
2018-05-27T11:38:48.412Z,77.60
2018-05-27T11:41:15.987Z,77.50
2018-05-27T11:43:43.497Z,75.90
2018-05-27T11:46:11.070Z,75.70
2018-05-27T11:48:39.437Z,75.60
2018-05-27T11:51:06.938Z,75.60
2018-05-27T11:53:34.481Z,75.40
2018-05-27T11:56:02.285Z,75.50
2018-05-27T11:58:29.856Z,75.30
2018-05-27T12:00:57.377Z,74.70
2018-05-27T12:03:24.973Z,72.20
2018-05-27T12:05:52.608Z,73.90
2018-05-27T12:08:20.127Z,72.00
2018-05-27T12:10:48.543Z,71.20
2018-05-27T12:13:16.117Z,71.10
2018-05-27T12:15:43.664Z,71.20
2018-05-27T12:18:11.237Z,69.70
2018-05-27T12:20:38.774Z,68.30
2018-05-27T12:23:06.353Z,66.50
2018-05-27T12:25:33.992Z,66.80
2018-05-27T12:28:02.749Z,67.40
2018-05-27T12:30:31.173Z,67.30
2018-05-27T12:32:58.705Z,67.20
2018-05-27T12:35:27.170Z,67.40
2018-05-27T12:37:55.497Z,67.50
2018-05-27T12:40:23.130Z,67.40
2018-05-27T12:42:50.818Z,68.10
2018-05-27T12:45:19.192Z,69.10
2018-05-27T12:47:46.743Z,69.00
2018-05-27T12:50:14.266Z,68.70
2018-05-27T12:52:41.861Z,68.20
2018-05-27T12:55:09.409Z,65.50
2018-05-27T12:57:36.970Z,63.40
2018-05-27T13:00:04.511Z,61.60
2018-05-27T13:02:32.045Z,62.00
2018-05-27T13:05:00.370Z,62.70
2018-05-27T13:07:27.899Z,62.70
2018-05-27T13:09:55.488Z,62.60
2018-05-27T13:12:23.017Z,60.60
2018-05-27T13:14:50.557Z,61.40
2018-05-27T13:17:18.861Z,60.10
2018-05-27T13:19:46.432Z,60.00
2018-05-27T13:22:13.944Z,59.80
2018-05-27T13:24:41.551Z,57.90
2018-05-27T13:27:09.085Z,56.60
2018-05-27T13:29:36.639Z,56.40
2018-05-27T13:32:04.956Z,57.80
2018-05-27T13:34:32.516Z,57.80
2018-05-27T13:37:00.457Z,59.70
2018-05-27T13:39:27.982Z,59.70
2018-05-27T13:41:56.335Z,62.80
2018-05-27T13:44:23.979Z,62.50
2018-05-27T13:46:51.508Z,63.40
2018-05-27T13:49:19.077Z,62.40
2018-05-27T13:51:46.582Z,65.00
2018-05-27T13:54:14.173Z,63.80
2018-05-27T13:56:41.773Z,65.50
2018-05-27T13:59:09.964Z,65.30
2018-05-27T14:01:37.586Z,65.40
2018-05-27T14:04:05.196Z,65.60
2018-05-27T14:06:32.738Z,65.80
2018-05-27T14:09:00.286Z,66.20
2018-05-27T14:11:30.522Z,66.80
2018-05-27T14:13:58.363Z,65.80
2018-05-27T14:16:25.892Z,65.70
2018-05-27T14:18:53.478Z,64.90
2018-05-27T14:21:21.176Z,64.90
2018-05-27T14:23:48.708Z,64.80
2018-05-27T14:26:16.267Z,65.50
2018-05-27T14:28:43.824Z,66.30
2018-05-27T14:31:11.371Z,66.70
2018-05-27T14:33:38.934Z,66.40
2018-05-27T14:36:06.493Z,64.70
2018-05-27T14:38:34.059Z,64.50
2018-05-27T14:41:01.608Z,64.10
2018-05-27T14:43:29.280Z,64.00
2018-05-27T14:45:56.825Z,63.80
2018-05-27T14:48:24.359Z,64.30
2018-05-27T14:50:52.046Z,65.40
2018-05-27T14:53:19.609Z,66.20
2018-05-27T14:55:47.488Z,69.70
2018-05-27T14:58:15.035Z,71.20
2018-05-27T15:00:42.594Z,70.60
2018-05-27T15:03:10.122Z,71.20
2018-05-27T15:05:37.733Z,72.60
2018-05-27T15:08:05.391Z,73.50
2018-05-27T15:10:32.925Z,72.90
2018-05-27T15:13:00.437Z,72.70
2018-05-27T15:15:28.055Z,73.10
2018-05-27T15:17:55.578Z,72.90
2018-05-27T15:20:23.990Z,73.80
2018-05-27T15:22:51.522Z,73.70
2018-05-27T15:25:19.122Z,74.40
2018-05-27T15:27:46.770Z,74.60
2018-05-27T15:30:19.233Z,74.70
2018-05-27T15:32:46.798Z,75.20
2018-05-27T15:35:14.324Z,76.10
2018-05-27T15:37:42.040Z,76.40
2018-05-27T15:40:09.678Z,76.80
2018-05-27T15:42:37.216Z,77.70
2018-05-27T15:45:04.795Z,78.50
2018-05-27T15:47:32.309Z,79.50
2018-05-27T15:50:00.597Z,80.90
2018-05-27T15:52:28.917Z,81.70
2018-05-27T15:54:56.434Z,81.70
2018-05-27T15:57:24.771Z,82.30
2018-05-27T15:59:52.395Z,82.20
2018-05-27T16:02:19.962Z,82.20
2018-05-27T16:04:47.637Z,82.70
2018-05-27T16:07:15.194Z,83.00
2018-05-27T16:09:42.760Z,82.80
2018-05-27T16:12:10.312Z,82.60
2018-05-27T16:14:37.858Z,82.90
2018-05-27T16:17:05.418Z,82.70
2018-05-27T16:19:32.940Z,82.30
2018-05-27T16:22:01.343Z,81.20
2018-05-27T16:24:28.852Z,81.00
2018-05-27T16:26:56.402Z,81.40
2018-05-27T16:29:23.937Z,81.00
2018-05-27T16:31:51.897Z,81.00
2018-05-27T16:34:19.468Z,80.90
2018-05-27T16:36:47.014Z,81.30
2018-05-27T16:39:14.563Z,82.80
2018-05-27T16:41:42.129Z,82.40
2018-05-27T16:44:10.196Z,82.50
2018-05-27T16:46:37.796Z,83.20
2018-05-27T16:49:05.295Z,83.50
2018-05-27T16:51:32.813Z,83.40
2018-05-27T16:54:00.434Z,84.40
2018-05-27T16:56:27.999Z,84.30
2018-05-27T16:58:55.555Z,84.20
2018-05-27T17:01:23.069Z,83.70
2018-05-27T17:03:51.403Z,82.50
2018-05-27T17:06:19.379Z,82.40
2018-05-27T17:08:46.930Z,81.60
2018-05-27T17:11:14.585Z,81.50
2018-05-27T17:13:42.143Z,81.00
2018-05-27T17:16:09.654Z,81.20
2018-05-27T17:18:37.958Z,77.90
2018-05-27T17:21:05.547Z,77.80
2018-05-27T17:23:33.106Z,77.30
2018-05-27T17:26:00.640Z,77.90
2018-05-27T17:28:28.213Z,78.50
2018-05-27T17:30:55.759Z,78.90
2018-05-27T17:33:23.288Z,79.00
2018-05-27T17:35:51.704Z,78.70
2018-05-27T17:38:19.241Z,78.70
2018-05-27T17:40:46.817Z,77.80
2018-05-27T17:43:14.348Z,77.90
2018-05-27T17:45:42.653Z,77.10
2018-05-27T17:48:10.213Z,77.10
2018-05-27T17:50:37.747Z,77.10
2018-05-27T17:53:05.339Z,77.60
2018-05-27T17:55:32.891Z,77.80
2018-05-27T17:58:01.345Z,77.80
2018-05-27T18:00:28.911Z,77.70
2018-05-27T18:02:56.434Z,77.10
2018-05-27T18:05:23.964Z,76.80
2018-05-27T18:07:51.512Z,76.60
2018-05-27T18:10:19.034Z,77.30
2018-05-27T18:12:47.391Z,81.60
2018-05-27T18:15:15.718Z,83.60
2018-05-27T18:17:43.604Z,83.50
2018-05-27T18:20:11.149Z,84.40
2018-05-27T18:22:38.679Z,85.10
2018-05-27T18:25:06.262Z,85.70
2018-05-27T18:27:33.845Z,86.40
2018-05-27T18:30:02.205Z,86.90
2018-05-27T18:32:30.130Z,86.90
2018-05-27T18:34:58.449Z,87.60
2018-05-27T18:37:26.675Z,87.50
2018-05-27T18:39:54.997Z,87.90
2018-05-27T18:42:22.566Z,87.70
2018-05-27T18:44:50.205Z,88.50
2018-05-27T18:47:17.758Z,88.90
2018-05-27T18:49:45.321Z,89.60
2018-05-27T18:52:12.854Z,90.10
2018-05-27T18:54:41.165Z,90.10
2018-05-27T18:57:08.735Z,90.10
2018-05-27T18:59:36.549Z,90.20
2018-05-27T19:02:04.881Z,90.40
2018-05-27T19:04:32.419Z,90.40
2018-05-27T19:06:59.990Z,90.40
2018-05-27T19:09:27.565Z,90.60
2018-05-27T19:11:55.119Z,90.70
2018-05-27T19:14:23.303Z,91.00
2018-05-27T19:16:51.669Z,91.40
2018-05-27T19:19:19.200Z,91.40
2018-05-27T19:21:46.760Z,91.80
2018-05-27T19:24:14.347Z,91.90
2018-05-27T19:26:41.908Z,92.20
2018-05-27T19:29:09.445Z,92.50
2018-05-27T19:31:37.008Z,92.60
2018-05-27T19:34:04.663Z,92.90
2018-05-27T19:36:32.234Z,93.10
2018-05-27T19:38:59.818Z,93.30
2018-05-27T19:41:27.474Z,93.60
2018-05-27T19:43:55.109Z,93.70
2018-05-27T19:46:23.660Z,94.00
2018-05-27T19:48:51.192Z,94.20
2018-05-27T19:51:18.746Z,94.30
2018-05-27T19:53:46.371Z,94.40
2018-05-27T19:56:13.938Z,94.40
2018-05-27T19:58:41.474Z,94.40
2018-05-27T20:01:09.121Z,94.60
2018-05-27T20:03:36.667Z,94.90
2018-05-27T20:06:04.990Z,95.40
2018-05-27T20:08:32.560Z,95.40
2018-05-27T20:11:00.102Z,95.70
2018-05-27T20:13:27.753Z,95.80
2018-05-27T20:15:55.274Z,95.80
2018-05-27T20:18:23.610Z,95.60
2018-05-27T20:20:51.146Z,95.60
2018-05-27T20:23:18.670Z,95.80
2018-05-27T20:25:46.960Z,95.80
2018-05-27T20:28:14.474Z,95.90
2018-05-27T20:30:42.057Z,95.90
2018-05-27T20:33:09.537Z,95.90
2018-05-27T20:35:37.049Z,96.00
2018-05-27T20:38:04.573Z,95.80
2018-05-27T20:40:32.100Z,95.60
2018-05-27T20:43:00.420Z,95.20
2018-05-27T20:45:27.942Z,95.10
2018-05-27T20:47:55.475Z,95.20
2018-05-27T20:50:24.105Z,94.70
2018-05-27T20:52:51.637Z,94.70
2018-05-27T20:55:19.184Z,94.60
2018-05-27T20:57:47.475Z,95.10
2018-05-27T21:00:15.003Z,95.10
2018-05-27T21:02:42.530Z,95.50
2018-05-27T21:05:10.045Z,95.50
2018-05-27T21:07:38.354Z,95.90
2018-05-27T21:10:05.873Z,95.90
2018-05-27T21:12:35.100Z,96.30
2018-05-27T21:15:02.646Z,96.30
2018-05-27T21:17:30.233Z,96.40
2018-05-27T21:19:57.797Z,96.70
2018-05-27T21:22:25.354Z,96.70
2018-05-27T21:24:52.991Z,96.70
2018-05-27T21:27:20.582Z,97.10
2018-05-27T21:29:48.118Z,97.60
2018-05-27T21:32:16.035Z,97.70
2018-05-27T21:34:44.334Z,98.50
2018-05-27T21:37:11.930Z,98.50
2018-05-27T21:39:39.459Z,98.90
2018-05-27T21:42:07.033Z,99.10
2018-05-27T21:44:34.599Z,99.40
2018-05-27T21:47:02.587Z,99.60
2018-05-27T21:49:30.104Z,99.80
2018-05-27T21:51:57.641Z,99.90
2018-05-27T21:54:25.955Z,99.90
2018-05-27T21:56:53.523Z,99.90
2018-05-27T21:59:21.041Z,99.90
2018-05-27T22:01:49.322Z,99.90
2018-05-27T22:04:17.639Z,99.90
2018-05-27T22:06:45.172Z,99.90
2018-05-27T22:09:12.729Z,99.90
2018-05-27T22:11:40.263Z,99.90
2018-05-27T22:14:08.576Z,99.90
2018-05-27T22:16:36.131Z,99.90
2018-05-27T22:19:03.664Z,99.90
2018-05-27T22:21:31.218Z,99.90
2018-05-27T22:23:59.506Z,99.90
2018-05-27T22:26:27.029Z,99.90
2018-05-27T22:28:54.559Z,99.90
2018-05-27T22:31:22.079Z,99.90
2018-05-27T22:33:49.624Z,99.90
2018-05-27T22:36:17.914Z,99.90
2018-05-27T22:38:45.510Z,99.90
2018-05-27T22:41:13.063Z,99.90
2018-05-27T22:43:40.594Z,99.90
2018-05-27T22:46:08.152Z,99.90
2018-05-27T22:48:37.709Z,99.90
2018-05-27T22:51:05.340Z,99.90
2018-05-27T22:53:32.930Z,99.90
2018-05-27T22:56:00.429Z,99.90
2018-05-27T22:58:28.756Z,99.90
2018-05-27T23:00:56.301Z,99.90
2018-05-27T23:03:23.888Z,99.90
2018-05-27T23:05:51.536Z,99.90
2018-05-27T23:08:19.069Z,99.90
2018-05-27T23:10:46.623Z,99.90
2018-05-27T23:13:14.152Z,99.90
2018-05-27T23:15:42.481Z,99.90
2018-05-27T23:18:10.015Z,99.90
2018-05-27T23:20:37.540Z,99.90
2018-05-27T23:23:05.880Z,99.90
2018-05-27T23:25:33.418Z,99.90
2018-05-27T23:28:00.959Z,99.90
2018-05-27T23:30:28.511Z,99.90
2018-05-27T23:32:56.041Z,99.90
2018-05-27T23:35:24.352Z,99.90
2018-05-27T23:37:51.898Z,99.90
2018-05-27T23:40:19.433Z,99.90
2018-05-27T23:42:47.743Z,99.90
2018-05-27T23:45:15.276Z,99.90
2018-05-27T23:47:43.589Z,99.90
2018-05-27T23:50:11.271Z,99.90
2018-05-27T23:52:38.806Z,99.90
2018-05-27T23:55:06.370Z,99.90
2018-05-27T23:57:33.905Z,99.90
